createdAt,value
2022-11-27T00:27:08.451Z,5.16
2022-11-27T00:33:51.297Z,4.97
2022-11-27T00:40:14.731Z,4.92
2022-11-27T00:46:58.292Z,4.87
2022-11-27T00:53:41.198Z,4.72
2022-11-27T01:00:24.305Z,4.60
2022-11-27T01:07:06.888Z,4.61
2022-11-27T01:13:49.678Z,4.60
2022-11-27T01:20:32.607Z,4.50
2022-11-27T01:27:15.116Z,4.23
2022-11-27T01:33:58.285Z,4.14
2022-11-27T01:40:41.550Z,4.13
2022-11-27T01:47:23.407Z,4.12
2022-11-27T01:54:07.346Z,4.18
2022-11-27T02:00:54.957Z,4.27
2022-11-27T02:07:40.329Z,4.35
2022-11-27T02:14:50.140Z,4.42
2022-11-27T02:21:42.149Z,4.60
2022-11-27T02:28:45.405Z,4.61
2022-11-27T02:42:36.180Z,4.63
2022-11-27T02:49:28.695Z,4.68
2022-11-27T02:56:11.992Z,4.69
2022-11-27T03:02:55.461Z,4.77
2022-11-27T03:09:43.664Z,4.82
2022-11-27T03:16:29.205Z,4.80
2022-11-27T03:23:12.524Z,4.76
2022-11-27T03:29:55.578Z,4.80
2022-11-27T03:36:38.542Z,4.80
2022-11-27T03:43:31.165Z,4.68
2022-11-27T03:50:11.133Z,4.56
2022-11-27T03:56:54.502Z,4.57
2022-11-27T04:03:49.494Z,4.58
2022-11-27T04:10:34.253Z,4.50
2022-11-27T04:17:18.912Z,4.49
2022-11-27T04:24:01.827Z,4.53
2022-11-27T04:30:44.929Z,4.45
2022-11-27T04:37:28.172Z,4.43
2022-11-27T04:44:11.624Z,4.44
2022-11-27T04:50:54.877Z,4.42
2022-11-27T04:57:38.664Z,4.38
2022-11-27T08:25:24.268Z,3.26
2022-11-27T08:31:08.484Z,3.45
2022-11-27T08:36:36.206Z,3.67
2022-11-27T08:42:59.679Z,4.12
2022-11-27T08:49:46.178Z,5.70
2022-11-27T08:56:34.211Z,6.47
2022-11-27T09:03:22.535Z,7.53
2022-11-27T09:10:05.612Z,8.37
2022-11-27T09:16:29.795Z,8.69
2022-11-27T09:23:14.461Z,8.94
2022-11-27T09:29:37.828Z,9.20
2022-11-27T09:35:22.806Z,9.54
2022-11-27T09:41:40.715Z,9.00
2022-11-27T09:48:12.411Z,8.33
2022-11-27T09:55:01.649Z,7.60
2022-11-27T10:01:53.925Z,7.21
2022-11-27T10:08:51.803Z,6.95
2022-11-27T10:15:38.123Z,6.85
2022-11-27T10:22:30.163Z,6.78
2022-11-27T10:29:22.037Z,6.74
2022-11-27T10:36:05.440Z,6.71
2022-11-27T10:42:52.080Z,6.68
2022-11-27T10:49:35.469Z,6.56
2022-11-27T10:56:27.676Z,6.63
2022-11-27T11:03:28.574Z,6.68
2022-11-27T11:10:15.707Z,6.69
2022-11-27T11:17:04.591Z,6.61
2022-11-27T11:23:47.739Z,6.51
2022-11-27T11:30:33.861Z,6.50
2022-11-27T11:37:17.036Z,6.69
2022-11-27T11:44:08.988Z,6.84
2022-11-27T11:50:51.624Z,6.98
2022-11-27T11:57:34.537Z,6.92
2022-11-27T12:04:23.483Z,7.02
2022-11-27T12:11:26.401Z,7.25
2022-11-27T12:44:10.587Z,6.22
2022-11-27T12:50:20.765Z,6.17
2022-11-27T12:56:43.498Z,6.15
2022-11-27T13:03:19.286Z,6.11
2022-11-27T13:09:59.202Z,6.07
2022-11-27T13:16:15.770Z,6.03
2022-11-27T13:23:00.932Z,6.04
2022-11-27T13:29:47.306Z,6.00
2022-11-27T13:35:42.755Z,5.90
2022-11-27T13:42:05.528Z,5.81
2022-11-27T13:48:47.693Z,5.72
2022-11-27T13:55:18.945Z,5.65
2022-11-27T14:00:46.786Z,5.69
2022-11-27T14:06:28.281Z,5.71
2022-11-27T14:11:58.255Z,5.67
2022-11-27T14:18:27.498Z,5.64
2022-11-27T14:25:19.744Z,5.59
2022-11-27T14:31:09.518Z,5.57
2022-11-27T14:38:01.878Z,5.67
2022-11-27T14:44:45.348Z,5.74
2022-11-27T14:51:29.511Z,5.74
2022-11-27T14:58:17.642Z,5.69
2022-11-27T15:05:09.223Z,5.62
2022-11-27T15:11:56.876Z,5.58
2022-11-27T15:18:04.919Z,5.54
2022-11-27T15:25:00.239Z,5.50
2022-11-27T15:31:44.378Z,5.43
2022-11-27T15:38:32.603Z,5.34
2022-11-27T15:44:43.008Z,5.30
2022-11-27T15:51:06.847Z,5.24
2022-11-27T15:56:49.615Z,5.22
2022-11-27T16:02:39.920Z,5.20
2022-11-27T16:08:50.011Z,5.18
2022-11-27T16:14:20.530Z,5.05
2022-11-27T16:20:06.020Z,4.93
2022-11-27T16:25:33.540Z,4.85
2022-11-27T16:31:03.021Z,4.70
2022-11-27T16:37:06.385Z,4.56
2022-11-27T16:42:34.808Z,4.37
2022-11-27T16:48:19.895Z,4.22
2022-11-27T16:53:57.471Z,4.11
2022-11-27T16:59:47.365Z,4.06
2022-11-27T17:05:18.207Z,3.99
2022-11-27T17:11:20.762Z,3.90
2022-11-27T17:17:29.850Z,3.68
2022-11-27T17:23:17.257Z,3.63
2022-11-27T17:28:41.029Z,3.61
2022-11-27T17:34:47.196Z,3.56
2022-11-27T17:40:35.596Z,3.47
2022-11-27T17:46:18.586Z,3.44
2022-11-27T17:52:42.256Z,3.39
2022-11-27T17:59:05.606Z,3.30
2022-11-27T18:05:48.777Z,3.20
2022-11-27T18:12:32.128Z,3.17
2022-11-27T18:19:15.513Z,3.11
2022-11-27T18:25:58.424Z,3.06
2022-11-27T18:32:41.765Z,3.13
2022-11-27T18:39:24.761Z,3.21
2022-11-27T18:46:08.016Z,3.19
2022-11-27T18:52:51.588Z,3.15
2022-11-27T18:59:34.777Z,3.18
2022-11-27T19:06:17.730Z,3.18
2022-11-27T19:12:26.018Z,3.03
2022-11-27T19:18:52.676Z,2.95
2022-11-27T19:24:23.864Z,2.91
2022-11-27T19:30:51.697Z,2.85
2022-11-27T19:36:57.462Z,2.71
2022-11-27T19:42:43.369Z,2.49
2022-11-27T19:49:07.262Z,2.38
2022-11-27T19:55:50.814Z,2.36
2022-11-27T20:02:12.731Z,2.22
2022-11-27T20:08:13.550Z,2.08
2022-11-27T20:13:45.908Z,1.99
2022-11-27T20:20:11.543Z,2.05
2022-11-27T20:26:20.048Z,2.06
2022-11-27T20:32:43.767Z,2.06
2022-11-27T20:38:59.899Z,2.11
2022-11-27T20:45:25.593Z,2.15
2022-11-27T20:51:02.411Z,2.12
2022-11-27T20:57:45.522Z,2.06
2022-11-27T21:04:31.430Z,2.04
2022-11-27T21:11:14.616Z,2.02
2022-11-27T21:17:58.647Z,1.96
2022-11-27T21:24:42.333Z,1.90
2022-11-27T21:31:25.712Z,1.73
2022-11-27T21:38:08.600Z,1.74
2022-11-27T21:44:15.780Z,1.83
2022-11-27T21:50:31.373Z,1.79
2022-11-27T21:56:54.596Z,1.70
2022-11-27T22:03:42.591Z,1.67
2022-11-27T22:09:53.927Z,1.73
2022-11-27T22:15:38.950Z,1.72
2022-11-27T22:27:48.080Z,1.69
2022-11-27T22:33:31.426Z,4.42
2022-11-27T22:39:57.184Z,4.88
2022-11-27T22:46:44.633Z,4.07
2022-11-27T22:53:28.184Z,3.46
2022-11-27T23:00:12.414Z,3.06
2022-11-27T23:06:56.540Z,2.71
2022-11-27T23:13:39.631Z,2.44
2022-11-27T23:20:25.190Z,2.30
2022-11-27T23:27:08.272Z,2.15
2022-11-27T23:33:51.507Z,1.82
2022-11-27T23:40:35.519Z,1.70
2022-11-27T23:47:18.660Z,1.68
2022-11-27T23:54:02.944Z,1.55
